Time;durP1;ratioP1;P1;durP2;ratioP2;P2;SDS_P1;SDS_P2;PMS_P1;PMS_P2;Temp;Humidity;BMP_temperature;BMP_pressure;BME280_temperature;BME280_humidity;BME280_pressure;Samples;Min_cycle;Max_cycle;Signal;HPM_P1;HPM_P2
2022/10/08 00:01:33;;;;;;;1.50;1.40;;;20.90;55.40;;;;;;5087818;28;46401;-75
2022/10/08 00:04:00;;;;;;;1.65;1.40;;;20.90;55.40;;;;;;5088052;28;45155;-75
2022/10/08 00:06:28;;;;;;;1.40;1.30;;;20.90;56.00;;;;;;5088129;28;45134;-75
2022/10/08 00:08:56;;;;;;;1.50;1.40;;;20.90;55.40;;;;;;5088298;28;45300;-75
2022/10/08 00:11:23;;;;;;;1.52;1.42;;;20.90;55.40;;;;;;5087865;28;45432;-75
2022/10/08 00:13:50;;;;;;;1.52;1.42;;;20.90;55.50;;;;;;5087901;28;45247;-75
2022/10/08 00:16:18;;;;;;;1.80;1.52;;;20.90;55.40;;;;;;5088013;28;45195;-75
2022/10/08 00:18:47;;;;;;;1.75;1.65;;;20.90;55.50;;;;;;5088159;28;45407;-75
2022/10/08 00:21:15;;;;;;;1.50;1.40;;;20.90;55.50;;;;;;5087685;28;46399;-75
2022/10/08 00:23:42;;;;;;;1.38;1.38;;;20.90;56.10;;;;;;5087718;28;45300;-75
2022/10/08 00:26:10;;;;;;;1.70;1.60;;;20.80;55.50;;;;;;5087813;28;45276;-75
2022/10/08 00:28:37;;;;;;;1.52;1.42;;;20.80;55.50;;;;;;5086979;27;45216;-75
2022/10/08 00:31:08;;;;;;;1.50;1.40;;;20.80;55.50;;;;;;5087534;28;46483;-75
2022/10/08 00:33:35;;;;;;;1.30;1.20;;;20.80;55.50;;;;;;5087660;28;45232;-75
2022/10/08 00:36:03;;;;;;;1.50;1.40;;;20.80;55.60;;;;;;5087585;28;45307;-75
2022/10/08 00:38:30;;;;;;;1.50;1.40;;;20.80;55.50;;;;;;5088001;28;45212;-75
2022/10/08 00:40:58;;;;;;;1.60;1.50;;;20.80;55.50;;;;;;5087366;28;47561;-75
2022/10/08 00:43:39;;;;;;;1.80;1.70;;;20.80;55.60;;;;;;5087061;28;45348;-74
2022/10/08 00:46:06;;;;;;;1.88;1.40;;;20.80;55.50;;;;;;5087623;28;45198;-75
2022/10/08 00:48:34;;;;;;;3.40;1.65;;;20.80;55.50;;;;;;5087875;28;45253;-75
2022/10/08 00:51:02;;;;;;;1.80;1.40;;;20.80;55.60;;;;;;5087144;28;46991;-75
2022/10/08 00:53:30;;;;;;;1.52;1.42;;;20.80;55.60;;;;;;5087440;28;45230;-75
2022/10/08 00:55:56;;;;;;;2.42;1.48;;;20.80;55.60;;;;;;5087369;28;45131;-75
2022/10/08 00:58:23;;;;;;;2.05;1.58;;;20.70;55.60;;;;;;5087506;28;45454;-75
2022/10/08 01:00:50;;;;;;;1.80;1.52;;;20.70;55.60;;;;;;5087081;28;46412;-75
2022/10/08 01:03:17;;;;;;;1.98;1.63;;;20.70;55.70;;;;;;5087027;28;45303;-75
2022/10/08 01:05:47;;;;;;;1.42;1.30;;;20.70;55.70;;;;;;5087330;28;45274;-75
2022/10/08 01:08:17;;;;;;;1.63;1.52;;;20.70;55.60;;;;;;5087348;28;45406;-75
2022/10/08 01:10:47;;;;;;;1.60;1.50;;;20.70;55.70;;;;;;5086868;28;46708;-75
2022/10/08 01:13:19;;;;;;;1.90;1.70;;;20.70;55.70;;;;;;5086921;28;45310;-75
2022/10/08 01:15:49;;;;;;;1.88;1.60;;;20.70;55.70;;;;;;5087085;28;45146;-75
2022/10/08 01:18:19;;;;;;;1.50;1.40;;;20.70;55.70;;;;;;5087363;28;45351;-75
2022/10/08 01:20:54;;;;;;;1.58;1.48;;;20.70;55.70;;;;;;5086766;28;45532;-75
2022/10/08 01:23:51;;;;;;;1.70;1.60;;;20.60;55.70;;;;;;5086972;28;45298;-75
2022/10/08 01:26:42;;;;;;;1.98;1.77;;;20.60;55.70;;;;;;5086929;28;45173;-74
2022/10/08 01:29:13;;;;;;;1.70;1.60;;;20.60;55.80;;;;;;5086980;28;45421;-74
2022/10/08 01:31:42;;;;;;;1.95;1.35;;;20.60;55.70;;;;;;5086635;28;46368;-75
2022/10/08 01:34:11;;;;;;;1.60;1.50;;;20.60;55.80;;;;;;5086678;28;45358;-75
2022/10/08 01:36:42;;;;;;;1.73;1.58;;;20.60;55.80;;;;;;5086589;28;45191;-75
2022/10/08 01:39:10;;;;;;;1.70;1.60;;;20.60;55.80;;;;;;5086728;27;45550;-75
2022/10/08 01:41:37;;;;;;;1.65;1.52;;;20.60;55.90;;;;;;5086161;28;46399;-75
2022/10/08 01:44:05;;;;;;;1.85;1.50;;;20.60;56.50;;;;;;5086524;28;45185;-75
2022/10/08 01:46:33;;;;;;;1.58;1.48;;;20.60;55.90;;;;;;5086637;28;45244;-75
2022/10/08 01:49:03;;;;;;;1.80;1.60;;;20.50;55.90;;;;;;5086670;28;45348;-75
2022/10/08 01:51:32;;;;;;;1.80;1.67;;;20.50;55.90;;;;;;5086364;28;47387;-75
2022/10/08 01:53:59;;;;;;;1.92;1.80;;;20.50;55.80;;;;;;5086415;28;45361;-75
2022/10/08 01:56:27;;;;;;;1.88;1.50;;;20.50;55.90;;;;;;5086410;28;45221;-74
2022/10/08 01:58:55;;;;;;;1.60;1.45;;;20.50;55.90;;;;;;5086593;28;45550;-74
2022/10/08 02:01:24;;;;;;;1.70;1.60;;;20.50;55.90;;;;;;5086174;28;46599;-75
2022/10/08 02:06:37;;;;;;;2.25;1.70;;;20.50;56.50;;;;;;5083827;28;45147;-75
2022/10/08 02:09:04;;;;;;;1.80;1.70;;;20.50;56.00;;;;;;5086444;28;45233;-74
2022/10/08 02:11:32;;;;;;;1.95;1.52;;;20.50;56.00;;;;;;5086012;28;46414;-74
2022/10/08 02:13:59;;;;;;;1.90;1.63;;;20.40;56.00;;;;;;5086103;28;45288;-74
2022/10/08 02:16:27;;;;;;;1.50;1.40;;;20.40;56.00;;;;;;5086122;28;45276;-74
2022/10/08 02:19:03;;;;;;;2.15;1.65;;;20.40;56.00;;;;;;5086352;28;45431;-74
2022/10/08 02:21:31;;;;;;;2.03;1.75;;;20.40;56.00;;;;;;5085824;28;46421;-74
2022/10/08 02:24:01;;;;;;;1.67;1.58;;;20.40;56.00;;;;;;5085901;28;45390;-74
2022/10/08 02:26:31;;;;;;;1.50;1.40;;;20.40;56.00;;;;;;5085928;28;45213;-74
2022/10/08 02:28:59;;;;;;;2.92;1.88;;;20.40;56.00;;;;;;5086355;28;45369;-74
2022/10/08 02:31:26;;;;;;;2.80;1.95;;;20.40;56.00;;;;;;5085679;28;46374;-74
2022/10/08 02:33:57;;;;;;;1.60;1.50;;;20.40;56.10;;;;;;5085856;28;45209;-74
2022/10/08 02:36:26;;;;;;;1.80;1.70;;;20.40;56.10;;;;;;5085696;28;45331;-74
2022/10/08 02:38:53;;;;;;;1.70;1.60;;;20.40;56.10;;;;;;5086112;28;45571;-74
2022/10/08 02:41:21;;;;;;;1.50;1.40;;;20.40;56.10;;;;;;5085444;28;46671;-75
2022/10/08 02:43:48;;;;;;;2.08;1.88;;;20.40;56.10;;;;;;5085653;28;45323;-74
2022/10/08 02:46:16;;;;;;;1.70;1.60;;;20.40;56.20;;;;;;5085758;28;45376;-74
2022/10/08 02:48:45;;;;;;;1.60;1.50;;;20.30;56.00;;;;;;5085950;28;45557;-74
2022/10/08 02:51:14;;;;;;;2.13;1.55;;;20.30;56.00;;;;;;5086873;28;46371;-74
2022/10/08 02:53:41;;;;;;;1.70;1.60;;;20.30;56.10;;;;;;5089214;28;45232;-74
2022/10/08 02:56:11;;;;;;;2.00;1.63;;;20.30;56.10;;;;;;5089382;28;45332;-74
2022/10/08 02:58:38;;;;;;;1.65;1.55;;;20.30;56.70;;;;;;5089346;28;45399;-74
2022/10/08 03:01:08;;;;;;;2.00;1.80;;;20.30;56.10;;;;;;5088892;28;48182;-74
2022/10/08 03:03:37;;;;;;;2.00;1.90;;;20.30;56.10;;;;;;5089053;28;45277;-74
2022/10/08 03:06:06;;;;;;;1.80;1.70;;;20.30;56.20;;;;;;5089129;28;45312;-74
2022/10/08 03:08:36;;;;;;;2.08;1.95;;;20.30;56.80;;;;;;5089209;28;45180;-74
2022/10/08 03:11:03;;;;;;;1.75;1.65;;;20.30;56.20;;;;;;5088846;28;45444;-74
2022/10/08 03:13:30;;;;;;;1.70;1.60;;;20.30;56.10;;;;;;5088844;28;45295;-74
2022/10/08 03:15:57;;;;;;;2.00;1.80;;;20.20;56.10;;;;;;5088790;28;45218;-74
2022/10/08 03:18:24;;;;;;;1.88;1.67;;;20.20;56.70;;;;;;5089064;28;45230;-74
2022/10/08 03:20:51;;;;;;;1.70;1.60;;;20.20;56.20;;;;;;5088596;28;46369;-74
2022/10/08 03:23:18;;;;;;;2.10;1.75;;;20.20;56.20;;;;;;5088758;28;45292;-74
2022/10/08 03:25:46;;;;;;;1.80;1.50;;;20.20;56.20;;;;;;5088828;28;45304;-74
2022/10/08 03:28:13;;;;;;;2.03;1.67;;;20.20;56.20;;;;;;5089019;28;45175;-74
2022/10/08 03:30:40;;;;;;;1.70;1.60;;;20.20;56.20;;;;;;5088462;28;46409;-74
2022/10/08 03:33:07;;;;;;;1.80;1.70;;;20.20;56.20;;;;;;5088571;28;45323;-74
2022/10/08 03:35:34;;;;;;;1.90;1.80;;;20.20;56.30;;;;;;5088593;28;45498;-74
2022/10/08 03:38:01;;;;;;;2.05;1.73;;;20.20;56.20;;;;;;5088794;28;45312;-74
2022/10/08 03:40:27;;;;;;;1.90;1.70;;;20.10;56.20;;;;;;5088613;28;47445;-74
2022/10/08 03:42:56;;;;;;;1.63;1.52;;;20.10;56.20;;;;;;5088166;28;45206;-74
2022/10/08 03:45:22;;;;;;;1.92;1.83;;;20.10;56.20;;;;;;5088530;28;45383;-74
2022/10/08 03:47:52;;;;;;;1.60;1.50;;;20.10;56.30;;;;;;5088670;28;45342;-74
2022/10/08 03:50:19;;;;;;;2.10;1.70;;;20.10;56.20;;;;;;5088187;28;46544;-75
2022/10/08 03:52:46;;;;;;;1.70;1.60;;;20.10;56.30;;;;;;5088322;28;45193;-75
2022/10/08 03:55:13;;;;;;;2.60;1.88;;;20.10;56.30;;;;;;5089140;28;45313;-74
2022/10/08 03:57:40;;;;;;;2.45;1.77;;;20.10;56.40;;;;;;5088511;28;45379;-75
2022/10/08 04:00:10;;;;;;;1.88;1.65;;;20.00;56.30;;;;;;5089035;28;45257;-75
2022/10/08 04:02:37;;;;;;;2.10;1.88;;;20.00;56.40;;;;;;5087667;28;45274;-75
2022/10/08 04:05:04;;;;;;;1.50;1.40;;;20.00;56.40;;;;;;5089370;28;45301;-75
2022/10/08 04:07:31;;;;;;;1.90;1.80;;;20.00;56.40;;;;;;5089390;28;45438;-75
2022/10/08 04:09:58;;;;;;;1.42;1.33;;;20.00;56.50;;;;;;5088782;28;46890;-75
2022/10/08 04:12:25;;;;;;;2.00;1.58;;;20.00;57.00;;;;;;5089082;28;45317;-76
2022/10/08 04:14:52;;;;;;;1.83;1.50;;;20.00;56.50;;;;;;5089106;28;45351;-76
2022/10/08 04:17:20;;;;;;;2.17;1.90;;;20.00;56.50;;;;;;5089105;28;45515;-76
2022/10/08 04:19:47;;;;;;;1.63;1.52;;;19.90;56.50;;;;;;5088720;28;45238;-76
2022/10/08 04:22:14;;;;;;;3.25;1.70;;;19.90;56.50;;;;;;5088836;28;45190;-75
2022/10/08 04:24:40;;;;;;;2.47;1.67;;;19.90;56.60;;;;;;5088918;28;45200;-76
2022/10/08 04:27:07;;;;;;;1.80;1.67;;;19.90;56.60;;;;;;5088957;28;45430;-75
2022/10/08 04:29:34;;;;;;;1.85;1.75;;;19.90;56.50;;;;;;5088219;28;46402;-74
2022/10/08 04:32:01;;;;;;;2.55;1.75;;;19.90;56.70;;;;;;5088133;28;45308;-75
2022/10/08 04:34:29;;;;;;;1.88;1.60;;;19.90;57.20;;;;;;5088210;28;45211;-74
2022/10/08 04:36:56;;;;;;;1.90;1.73;;;19.90;56.70;;;;;;5088426;28;45546;-73
2022/10/08 04:39:23;;;;;;;1.80;1.70;;;19.90;56.60;;;;;;5088319;28;45352;-74
2022/10/08 04:41:50;;;;;;;1.83;1.73;;;20.00;56.50;;;;;;5087217;28;45324;-75
2022/10/08 04:44:16;;;;;;;2.05;1.92;;;20.00;56.60;;;;;;5088914;28;45281;-74
2022/10/08 04:46:43;;;;;;;1.88;1.77;;;20.00;56.50;;;;;;5088576;28;45471;-75
2022/10/08 04:49:10;;;;;;;1.73;1.52;;;20.00;56.50;;;;;;5088153;28;46329;-73
2022/10/08 04:51:39;;;;;;;1.55;1.45;;;19.90;56.40;;;;;;5088181;28;45360;-76
2022/10/08 04:54:05;;;;;;;1.92;1.70;;;19.90;56.50;;;;;;5088283;28;45315;-73
2022/10/08 04:56:33;;;;;;;1.85;1.67;;;19.90;56.50;;;;;;5088472;28;45177;-75
2022/10/08 04:59:00;;;;;;;1.70;1.60;;;19.90;56.50;;;;;;5087961;28;46718;-75
2022/10/08 05:01:27;;;;;;;2.13;1.75;;;19.90;56.50;;;;;;5088161;28;45409;-76
2022/10/08 05:03:55;;;;;;;2.08;1.75;;;19.90;56.40;;;;;;5088261;28;45328;-76
2022/10/08 05:06:23;;;;;;;1.50;1.40;;;19.90;57.10;;;;;;5088142;28;45403;-74
2022/10/08 05:08:51;;;;;;;1.65;1.40;;;19.90;56.50;;;;;;5087869;28;47312;-75
2022/10/08 05:11:18;;;;;;;2.60;1.73;;;19.90;56.50;;;;;;5088058;28;45271;-75
2022/10/08 05:13:49;;;;;;;1.48;1.38;;;19.90;56.60;;;;;;5087454;27;45317;-75
2022/10/08 05:16:16;;;;;;;2.92;1.63;;;19.90;56.50;;;;;;5088163;28;45120;-73
2022/10/08 05:18:43;;;;;;;1.98;1.83;;;19.90;56.50;;;;;;5087771;28;47592;-74
2022/10/08 05:21:10;;;;;;;2.03;1.75;;;19.90;56.50;;;;;;5087696;28;45249;-75
2022/10/08 05:23:37;;;;;;;1.98;1.75;;;19.90;56.60;;;;;;5086988;28;45205;-76
2022/10/08 05:26:13;;;;;;;3.50;1.85;;;19.90;56.50;;;;;;5087118;28;45181;-73
2022/10/08 05:28:40;;;;;;;1.65;1.55;;;19.90;56.50;;;;;;5086684;28;46389;-73
2022/10/08 05:31:07;;;;;;;1.60;1.50;;;19.90;56.50;;;;;;5086621;28;45198;-75
2022/10/08 05:33:35;;;;;;;1.80;1.60;;;19.90;56.50;;;;;;5086890;28;45380;-74
2022/10/08 05:36:03;;;;;;;3.25;1.70;;;19.90;56.60;;;;;;5086767;28;45291;-75
2022/10/08 05:38:30;;;;;;;1.65;1.55;;;19.90;56.60;;;;;;5086497;28;45204;-75
2022/10/08 05:41:07;;;;;;;2.47;1.88;;;19.90;56.60;;;;;;5086550;28;45264;-74
2022/10/08 05:43:36;;;;;;;3.25;1.95;;;19.90;56.60;;;;;;5086697;28;45272;-73
2022/10/08 05:46:03;;;;;;;1.40;1.30;;;19.90;56.60;;;;;;5086813;28;45127;-75
2022/10/08 05:48:30;;;;;;;2.75;1.50;;;19.90;56.50;;;;;;5086399;28;47566;-73
2022/10/08 05:50:57;;;;;;;2.15;1.40;;;19.90;56.50;;;;;;5086400;28;45247;-75
2022/10/08 05:53:24;;;;;;;2.13;1.45;;;19.90;56.50;;;;;;5086524;28;45310;-74
2022/10/08 05:55:59;;;;;;;1.52;1.42;;;19.90;56.60;;;;;;5086564;28;45543;-74
2022/10/08 05:58:26;;;;;;;2.70;1.48;;;19.80;56.50;;;;;;5086118;28;46396;-74
2022/10/08 06:00:58;;;;;;;1.75;1.65;;;19.80;56.50;;;;;;5086257;28;45192;-73
2022/10/08 06:03:25;;;;;;;1.80;1.70;;;19.80;56.50;;;;;;5066130;28;45418;-74
2022/10/08 06:05:52;;;;;;;1.55;1.45;;;19.80;56.60;;;;;;5066160;28;45399;-73
2022/10/08 06:08:19;;;;;;;1.65;1.55;;;19.80;56.70;;;;;;5065742;28;45178;-75
2022/10/08 06:10:49;;;;;;;1.55;1.45;;;19.80;57.30;;;;;;5065757;28;45135;-75
2022/10/08 06:13:16;;;;;;;1.83;1.60;;;19.80;56.70;;;;;;5066020;28;45272;-74
2022/10/08 06:15:43;;;;;;;1.83;1.70;;;19.80;57.20;;;;;;5066071;28;45319;-74
2022/10/08 06:18:11;;;;;;;1.60;1.50;;;19.80;56.70;;;;;;5065507;28;45437;-75
2022/10/08 06:20:38;;;;;;;1.65;1.52;;;19.80;57.00;;;;;;5065756;28;45407;-75
2022/10/08 06:23:05;;;;;;;1.90;1.40;;;19.90;56.80;;;;;;5065830;28;45301;-75
2022/10/08 06:25:35;;;;;;;1.75;1.60;;;19.80;56.80;;;;;;5064863;28;45297;-75
2022/10/08 06:28:02;;;;;;;1.80;1.70;;;19.90;56.80;;;;;;5065444;28;45216;-74
2022/10/08 06:30:29;;;;;;;1.58;1.48;;;19.80;56.70;;;;;;5065471;28;45395;-75
2022/10/08 06:32:56;;;;;;;1.98;1.30;;;19.80;56.80;;;;;;5065636;28;45300;-75
2022/10/08 06:35:24;;;;;;;1.50;1.40;;;19.80;56.70;;;;;;5067729;28;45451;-73
2022/10/08 06:37:51;;;;;;;1.55;1.45;;;19.80;56.70;;;;;;5085599;28;46560;-73
2022/10/08 06:40:18;;;;;;;1.45;1.35;;;19.80;56.70;;;;;;5085861;28;45289;-75
2022/10/08 06:42:45;;;;;;;1.70;1.60;;;19.80;56.70;;;;;;5085509;28;45492;-75
2022/10/08 06:45:12;;;;;;;1.80;1.48;;;19.80;56.80;;;;;;5085966;28;45442;-75
2022/10/08 06:47:38;;;;;;;1.58;1.48;;;19.80;56.80;;;;;;5085622;28;46411;-75
2022/10/08 06:50:06;;;;;;;1.63;1.40;;;19.80;56.80;;;;;;5085663;28;45189;-75
2022/10/08 06:52:35;;;;;;;1.73;1.63;;;19.80;56.80;;;;;;5085793;28;45343;-75
2022/10/08 06:55:01;;;;;;;1.60;1.50;;;19.80;56.80;;;;;;5085838;28;45320;-75
2022/10/08 06:57:28;;;;;;;1.60;1.50;;;19.80;56.80;;;;;;5085485;28;46429;-75
2022/10/08 06:59:57;;;;;;;1.40;1.30;;;19.90;56.90;;;;;;5085462;28;45201;-76
2022/10/08 07:02:24;;;;;;;2.63;1.52;;;19.80;56.80;;;;;;5085566;28;45327;-73
2022/10/08 07:04:51;;;;;;;2.83;1.50;;;19.80;56.80;;;;;;5085653;28;45260;-75
2022/10/08 07:07:18;;;;;;;1.38;1.30;;;19.80;56.70;;;;;;5085204;28;46737;-74
2022/10/08 07:09:46;;;;;;;1.92;1.48;;;19.80;56.70;;;;;;5085369;28;45306;-74
2022/10/08 07:12:14;;;;;;;1.75;1.60;;;19.80;56.70;;;;;;5085498;28;45311;-74
2022/10/08 07:14:40;;;;;;;1.60;1.50;;;19.80;56.70;;;;;;5085443;28;45470;-73
2022/10/08 07:17:08;;;;;;;1.70;1.60;;;19.80;56.70;;;;;;5085258;28;47282;-73
2022/10/08 07:19:35;;;;;;;1.77;1.60;;;19.80;56.70;;;;;;5085109;28;45317;-74
2022/10/08 07:22:02;;;;;;;1.80;1.50;;;19.80;56.70;;;;;;5085386;28;45267;-74
2022/10/08 07:24:28;;;;;;;1.55;1.45;;;19.80;57.30;;;;;;5084920;28;45412;-74
2022/10/08 07:26:57;;;;;;;2.88;1.58;;;19.80;56.80;;;;;;5085081;28;45457;-74
2022/10/08 07:29:25;;;;;;;1.77;1.67;;;19.80;56.80;;;;;;5085136;28;45202;-74
2022/10/08 07:31:52;;;;;;;1.90;1.63;;;19.80;56.80;;;;;;5085105;28;45273;-74
2022/10/08 07:34:19;;;;;;;1.67;1.40;;;19.80;56.80;;;;;;5085202;28;45307;-75
2022/10/08 07:36:46;;;;;;;1.77;1.67;;;19.80;56.80;;;;;;5085458;27;45322;-75
2022/10/08 07:39:13;;;;;;;1.60;1.50;;;19.80;56.80;;;;;;5088404;28;45296;-75
2022/10/08 07:41:40;;;;;;;1.65;1.55;;;19.80;56.90;;;;;;5088338;28;45192;-73
2022/10/08 07:44:10;;;;;;;2.08;1.75;;;19.80;56.90;;;;;;5088717;28;45320;-74
2022/10/08 07:46:38;;;;;;;2.58;1.90;;;19.80;57.00;;;;;;5088318;28;45274;-74
2022/10/08 07:49:04;;;;;;;2.28;1.60;;;19.80;57.00;;;;;;5088144;28;45181;-73
2022/10/08 07:51:32;;;;;;;1.95;1.80;;;19.80;57.00;;;;;;5088445;28;45248;-74
2022/10/08 07:53:59;;;;;;;2.78;1.50;;;19.80;57.10;;;;;;5088619;28;45322;-73
2022/10/08 07:56:26;;;;;;;2.00;1.77;;;19.80;57.10;;;;;;5088135;28;45311;-73
2022/10/08 07:58:53;;;;;;;1.60;1.50;;;19.80;57.10;;;;;;5088111;28;45310;-72
2022/10/08 08:01:22;;;;;;;2.35;1.70;;;19.80;57.00;;;;;;5088183;28;45184;-75
2022/10/08 08:03:53;;;;;;;2.10;1.67;;;19.80;57.10;;;;;;5088359;28;45523;-74
2022/10/08 08:06:19;;;;;;;1.77;1.67;;;19.80;57.10;;;;;;5087965;28;45291;-74
2022/10/08 08:08:46;;;;;;;1.75;1.65;;;19.80;57.10;;;;;;5088007;28;45239;-74
2022/10/08 08:11:14;;;;;;;2.72;1.80;;;19.80;57.00;;;;;;5088077;28;45229;-74
2022/10/08 08:13:41;;;;;;;1.90;1.80;;;19.90;57.10;;;;;;5088209;28;45352;-74
2022/10/08 08:16:09;;;;;;;1.73;1.58;;;19.90;57.10;;;;;;5087738;28;45419;-74
2022/10/08 08:18:38;;;;;;;2.83;2.17;;;19.90;57.20;;;;;;5087690;28;45147;-74
2022/10/08 08:21:06;;;;;;;2.60;1.90;;;19.80;57.10;;;;;;5088030;28;45450;-75
2022/10/08 08:23:34;;;;;;;2.35;1.77;;;19.90;57.20;;;;;;5088112;28;45373;-74
2022/10/08 08:26:01;;;;;;;3.55;2.08;;;19.90;57.20;;;;;;5087649;28;46391;-73
2022/10/08 08:28:28;;;;;;;2.67;1.90;;;19.90;57.20;;;;;;5087691;28;45260;-74
2022/10/08 08:30:56;;;;;;;2.88;1.80;;;19.90;57.30;;;;;;5087885;28;45363;-73
2022/10/08 08:33:22;;;;;;;2.10;1.60;;;19.90;57.30;;;;;;5088009;28;45475;-73
2022/10/08 08:35:54;;;;;;;2.20;1.65;;;19.90;57.90;;;;;;5087454;28;46398;-73
2022/10/08 08:38:21;;;;;;;1.85;1.75;;;19.90;57.30;;;;;;5087445;28;45327;-73
2022/10/08 08:40:48;;;;;;;1.95;1.75;;;19.90;57.30;;;;;;5087854;28;45311;-74
2022/10/08 08:43:15;;;;;;;2.63;1.98;;;19.90;57.40;;;;;;5086795;27;45202;-73
2022/10/08 08:45:42;;;;;;;2.42;1.95;;;19.90;57.30;;;;;;5087299;28;47416;-76
2022/10/08 08:48:14;;;;;;;3.90;2.10;;;19.90;57.30;;;;;;5086662;27;45194;-74
2022/10/08 08:50:41;;;;;;;2.05;1.77;;;19.90;57.30;;;;;;5087374;28;45199;-73
2022/10/08 08:53:10;;;;;;;1.75;1.65;;;19.90;57.30;;;;;;5069621;28;45336;-74
2022/10/08 08:55:39;;;;;;;2.40;1.90;;;19.90;57.30;;;;;;5087203;28;47634;-73
2022/10/08 08:58:13;;;;;;;2.08;1.95;;;19.90;57.30;;;;;;5087505;28;45229;-75
2022/10/08 09:00:41;;;;;;;3.10;2.00;;;19.90;57.30;;;;;;5087330;28;45277;-73
2022/10/08 09:03:13;;;;;;;2.08;1.88;;;20.00;57.30;;;;;;5087433;28;45463;-74
2022/10/08 09:05:41;;;;;;;2.30;2.10;;;20.00;57.20;;;;;;5087164;28;46333;-73
2022/10/08 09:08:13;;;;;;;2.05;1.92;;;20.00;57.20;;;;;;5087085;28;45197;-74
2022/10/08 09:10:42;;;;;;;2.65;1.90;;;20.00;57.20;;;;;;5087445;28;45241;-74
2022/10/08 09:13:13;;;;;;;2.72;1.90;;;20.00;57.20;;;;;;5087274;28;45242;-73
2022/10/08 09:15:40;;;;;;;2.95;1.67;;;20.10;57.20;;;;;;5086918;28;45283;-73
2022/10/08 09:18:09;;;;;;;1.95;1.80;;;20.10;57.20;;;;;;5086894;28;45174;-74
2022/10/08 09:20:38;;;;;;;2.20;2.00;;;20.10;57.10;;;;;;5086938;28;45280;-73
2022/10/08 09:23:08;;;;;;;1.90;1.80;;;20.10;57.10;;;;;;5087062;28;45390;-73
2022/10/08 09:25:36;;;;;;;3.00;2.30;;;20.10;57.10;;;;;;5086587;28;45254;-74
2022/10/08 09:28:03;;;;;;;2.20;2.10;;;20.10;57.10;;;;;;5086705;28;45289;-74
2022/10/08 09:30:34;;;;;;;1.98;1.88;;;20.10;57.20;;;;;;5086955;28;45285;-74
2022/10/08 09:33:02;;;;;;;2.10;1.98;;;20.10;57.20;;;;;;5086914;28;45407;-74
2022/10/08 09:35:29;;;;;;;2.10;1.88;;;20.10;57.10;;;;;;5086358;28;46405;-74
2022/10/08 09:37:56;;;;;;;2.00;1.90;;;20.20;57.30;;;;;;5086608;28;45213;-74
2022/10/08 09:40:24;;;;;;;3.00;2.20;;;20.20;57.20;;;;;;5086713;28;45256;-74
2022/10/08 09:43:18;;;;;;;1.90;1.80;;;20.20;57.20;;;;;;5086621;28;45345;-74
2022/10/08 09:45:45;;;;;;;2.10;1.85;;;20.20;57.20;;;;;;5067161;28;45458;-74
2022/10/08 09:48:16;;;;;;;2.45;2.00;;;20.20;57.20;;;;;;5086449;28;45296;-74
2022/10/08 09:50:57;;;;;;;4.03;2.25;;;20.20;57.20;;;;;;5086615;28;45256;-74
2022/10/08 09:53:25;;;;;;;2.72;2.17;;;20.20;57.30;;;;;;5086509;28;45381;-74
2022/10/08 09:55:54;;;;;;;2.22;2.05;;;20.20;57.30;;;;;;5078905;27;46233;-74
2022/10/08 09:58:22;;;;;;;1.98;1.85;;;20.20;57.20;;;;;;5082029;28;45475;-74
2022/10/08 10:00:57;;;;;;;3.13;2.08;;;20.20;57.30;;;;;;5083521;28;45284;-73
2022/10/08 10:03:25;;;;;;;1.70;1.60;;;20.20;57.30;;;;;;5086052;27;45351;-73
2022/10/08 10:05:52;;;;;;;3.00;1.70;;;20.20;57.20;;;;;;5086830;27;46418;-74
2022/10/08 10:08:40;;;;;;;2.38;1.90;;;20.20;57.30;;;;;;5082947;28;45257;-74
2022/10/08 10:11:07;;;;;;;1.98;1.80;;;20.20;57.20;;;;;;5084671;27;45240;-74
2022/10/08 10:13:36;;;;;;;2.30;1.67;;;20.30;57.20;;;;;;5086401;28;45282;-74
2022/10/08 10:16:04;;;;;;;2.42;1.67;;;20.20;57.20;;;;;;5085938;28;46695;-74
2022/10/08 10:18:32;;;;;;;2.53;2.00;;;20.30;57.20;;;;;;5085945;28;45403;-73
2022/10/08 10:21:01;;;;;;;3.17;1.80;;;20.30;57.10;;;;;;5079596;27;45244;-74
2022/10/08 10:23:29;;;;;;;2.33;1.58;;;20.30;57.00;;;;;;5070866;28;45177;-74
2022/10/08 10:25:57;;;;;;;2.45;1.50;;;20.40;57.00;;;;;;5079918;28;45339;-74
2022/10/08 10:28:31;;;;;;;1.75;1.65;;;20.40;56.90;;;;;;5085812;28;45305;-74
2022/10/08 10:31:01;;;;;;;3.25;1.80;;;20.40;56.90;;;;;;5086080;28;45319;-75
2022/10/08 10:33:29;;;;;;;2.00;1.90;;;20.40;56.80;;;;;;5086175;28;45246;-74
2022/10/08 10:35:56;;;;;;;2.38;1.73;;;20.40;56.80;;;;;;5085602;28;46379;-74
2022/10/08 10:38:26;;;;;;;1.83;1.50;;;20.40;56.80;;;;;;5085819;28;45327;-74
2022/10/08 10:41:02;;;;;;;2.45;2.13;;;20.40;56.80;;;;;;5081613;28;45224;-74
2022/10/08 10:43:36;;;;;;;2.10;1.85;;;20.40;56.70;;;;;;5074965;28;45251;-72
2022/10/08 10:46:14;;;;;;;2.05;1.80;;;20.50;56.70;;;;;;5083243;28;45400;-74
2022/10/08 10:48:41;;;;;;;1.52;1.42;;;20.50;56.70;;;;;;5085490;28;45311;-74
2022/10/08 10:51:18;;;;;;;1.45;1.35;;;20.50;56.60;;;;;;5085841;28;45249;-74
2022/10/08 10:53:52;;;;;;;2.83;1.63;;;20.50;56.50;;;;;;5085910;28;45570;-74
2022/10/08 10:56:20;;;;;;;2.17;1.50;;;20.50;57.00;;;;;;5085374;28;45954;-74
2022/10/08 10:59:02;;;;;;;4.07;1.60;;;20.60;56.40;;;;;;5083081;28;45308;-74
2022/10/08 11:01:34;;;;;;;2.47;1.70;;;20.60;56.30;;;;;;5069342;28;45392;-73
2022/10/08 11:04:04;;;;;;;1.98;1.73;;;20.60;56.30;;;;;;5085565;28;45419;-72
2022/10/08 11:06:52;;;;;;;3.00;1.55;;;20.60;56.20;;;;;;5085280;28;45395;-74
2022/10/08 11:09:21;;;;;;;2.20;1.77;;;20.70;56.20;;;;;;5085083;28;45198;-73
2022/10/08 11:11:51;;;;;;;2.28;1.50;;;20.80;55.90;;;;;;5086208;28;45442;-73
2022/10/08 11:14:32;;;;;;;1.77;1.65;;;20.90;55.60;;;;;;5088821;28;45224;-73
2022/10/08 11:17:02;;;;;;;2.55;1.80;;;21.00;55.30;;;;;;5087925;28;46353;-73
2022/10/08 11:19:37;;;;;;;4.28;1.60;;;21.10;55.30;;;;;;5086100;28;45275;-72
2022/10/08 11:22:07;;;;;;;3.53;1.85;;;21.10;54.90;;;;;;5089034;28;45238;-73
2022/10/08 11:24:57;;;;;;;2.08;1.42;;;21.20;54.80;;;;;;5090108;28;45409;-73
2022/10/08 11:27:28;;;;;;;3.05;1.77;;;21.20;54.80;;;;;;5084508;28;46691;-73
2022/10/08 11:29:58;;;;;;;1.42;1.33;;;21.20;55.40;;;;;;5090092;28;45324;-73
2022/10/08 11:32:28;;;;;;;1.73;1.50;;;21.10;55.00;;;;;;5083777;28;45287;-74
2022/10/08 11:35:00;;;;;;;3.10;1.55;;;21.10;55.20;;;;;;5069423;28;45515;-74
2022/10/08 11:37:29;;;;;;;2.75;1.33;;;21.20;55.00;;;;;;5088421;28;45588;-74
2022/10/08 11:40:00;;;;;;;2.15;1.63;;;21.30;54.70;;;;;;5089355;28;45250;-74
2022/10/08 11:42:30;;;;;;;1.73;1.55;;;21.30;54.40;;;;;;5089291;28;45359;-73
2022/10/08 11:45:13;;;;;;;2.63;1.50;;;21.40;54.00;;;;;;5089686;28;45179;-73
2022/10/08 11:47:49;;;;;;;2.20;1.20;;;21.40;54.00;;;;;;5089217;28;47330;-73
2022/10/08 11:50:25;;;;;;;2.20;1.60;;;21.40;54.60;;;;;;5089084;28;45326;-73
2022/10/08 11:52:52;;;;;;;1.80;1.60;;;21.40;54.60;;;;;;5089137;28;45257;-73
2022/10/08 11:55:20;;;;;;;1.80;1.42;;;21.40;54.30;;;;;;5082533;28;45367;-73
2022/10/08 11:57:54;;;;;;;3.67;1.50;;;21.50;54.40;;;;;;5093125;28;45244;-74
2022/10/08 12:00:33;;;;;;;2.17;1.45;;;21.50;54.10;;;;;;5090099;28;45432;-72
2022/10/08 12:03:01;;;;;;;4.43;1.83;;;21.60;54.00;;;;;;5090477;28;45355;-73
2022/10/08 12:05:36;;;;;;;1.70;1.55;;;21.60;53.80;;;;;;5089490;28;45188;-74
2022/10/08 12:08:05;;;;;;;2.42;1.50;;;21.70;54.00;;;;;;5088338;28;45225;-73
2022/10/08 12:10:32;;;;;;;2.63;1.52;;;21.70;53.70;;;;;;5088989;28;45215;-73
2022/10/08 12:13:24;;;;;;;2.60;1.48;;;21.70;53.50;;;;;;5082685;28;45421;-73
2022/10/08 12:16:03;;;;;;;4.25;1.30;;;21.80;53.40;;;;;;5083589;27;45747;-72
2022/10/08 12:18:46;;;;;;;2.95;1.30;;;21.90;53.20;;;;;;5082506;27;46684;-73
2022/10/08 12:21:35;;;;;;;2.25;1.55;;;21.80;53.10;;;;;;5084131;28;45407;-72
2022/10/08 12:24:02;;;;;;;2.78;1.48;;;21.70;53.50;;;;;;5082193;27;45492;-73
2022/10/08 12:26:29;;;;;;;4.05;1.50;;;21.70;53.90;;;;;;5085615;28;45639;-73
2022/10/08 12:28:57;;;;;;;1.83;1.52;;;21.60;54.20;;;;;;5087126;28;46405;-73
2022/10/08 12:31:30;;;;;;;2.35;1.25;;;21.60;54.30;;;;;;5087649;27;45486;-73
2022/10/08 12:34:03;;;;;;;3.75;1.65;;;21.50;54.40;;;;;;5088118;28;45167;-74
2022/10/08 12:36:41;;;;;;;1.45;1.35;;;21.50;55.10;;;;;;5089593;27;45671;-73
2022/10/08 12:39:11;;;;;;;1.88;1.60;;;21.50;54.40;;;;;;5088989;28;45348;-73
2022/10/08 12:41:43;;;;;;;2.58;1.40;;;21.50;54.70;;;;;;5088217;28;45185;-74
2022/10/08 12:44:17;;;;;;;1.73;1.45;;;21.40;54.60;;;;;;5088630;28;45330;-73
2022/10/08 12:46:47;;;;;;;3.25;1.40;;;21.40;54.50;;;;;;5088743;28;45332;-73
2022/10/08 12:49:19;;;;;;;2.35;1.48;;;21.40;54.50;;;;;;5087107;28;45796;-74
2022/10/08 12:51:48;;;;;;;1.60;1.40;;;21.50;54.80;;;;;;5088357;28;45237;-73
2022/10/08 12:54:17;;;;;;;1.77;1.27;;;21.50;54.60;;;;;;5086497;27;45339;-74
2022/10/08 12:56:44;;;;;;;1.25;1.20;;;21.60;54.30;;;;;;5088513;28;45479;-74
2022/10/08 12:59:11;;;;;;;2.30;1.42;;;21.70;53.80;;;;;;5088346;28;45367;-74
2022/10/08 13:01:38;;;;;;;1.75;1.27;;;21.80;53.60;;;;;;5085739;28;45435;-74